Terminal Aerodrome Forecast
Issued by NWS

Home | Current Version | Previous Version | Text Only | Print | Product List | Glossary On
Versions: 1 2 3 4 5 6 7 8 9 10 11 12 13 14 15 16 17 18
706
FTUS46 KSGX 232328
TAFSNA
TAF
KSNA 232328Z 2400/2424 25006KT P6SM FEW012 FEW250
     FM240700 VRB04KT P6SM OVC009
     FM241600 VRB04KT P6SM SCT010
     FM241800 22010KT P6SM SCT010=

USA.gov is the U.S. government's official web portal to all federal, state and local government web resources and services.